sensor_id;sensor_type;location;lat;lon;timestamp;P1;durP1;ratioP1;P2;durP2;ratioP2
24557;SDS011;12726;49.148;8.582;2023-08-06T00:00:22;4.88;;;2.35;;
24557;SDS011;12726;49.148;8.582;2023-08-06T00:03:07;3.50;;;2.40;;
24557;SDS011;12726;49.148;8.582;2023-08-06T00:05:53;3.03;;;2.20;;
24557;SDS011;12726;49.148;8.582;2023-08-06T00:08:40;3.58;;;2.35;;
24557;SDS011;12726;49.148;8.582;2023-08-06T00:11:25;4.28;;;2.40;;
24557;SDS011;12726;49.148;8.582;2023-08-06T00:14:10;4.38;;;2.67;;
24557;SDS011;12726;49.148;8.582;2023-08-06T00:16:56;3.78;;;2.35;;
24557;SDS011;12726;49.148;8.582;2023-08-06T00:19:41;4.97;;;2.75;;
24557;SDS011;12726;49.148;8.582;2023-08-06T00:22:27;3.33;;;2.03;;
24557;SDS011;12726;49.148;8.582;2023-08-06T00:25:13;3.25;;;2.00;;
24557;SDS011;12726;49.148;8.582;2023-08-06T00:27:58;3.97;;;2.80;;
24557;SDS011;12726;49.148;8.582;2023-08-06T00:30:44;3.63;;;2.35;;
24557;SDS011;12726;49.148;8.582;2023-08-06T00:33:29;3.67;;;2.10;;
24557;SDS011;12726;49.148;8.582;2023-08-06T00:36:15;3.92;;;2.17;;
24557;SDS011;12726;49.148;8.582;2023-08-06T00:39:00;3.72;;;2.83;;
24557;SDS011;12726;49.148;8.582;2023-08-06T00:41:47;2.35;;;2.10;;
24557;SDS011;12726;49.148;8.582;2023-08-06T00:44:32;2.72;;;2.10;;
24557;SDS011;12726;49.148;8.582;2023-08-06T00:47:17;3.40;;;2.45;;
24557;SDS011;12726;49.148;8.582;2023-08-06T00:50:03;3.33;;;2.10;;
24557;SDS011;12726;49.148;8.582;2023-08-06T00:52:50;4.03;;;2.17;;
24557;SDS011;12726;49.148;8.582;2023-08-06T00:55:35;3.00;;;2.05;;
24557;SDS011;12726;49.148;8.582;2023-08-06T00:58:22;3.17;;;2.05;;
24557;SDS011;12726;49.148;8.582;2023-08-06T01:01:08;2.22;;;1.80;;
24557;SDS011;12726;49.148;8.582;2023-08-06T01:03:53;4.65;;;2.30;;
24557;SDS011;12726;49.148;8.582;2023-08-06T01:06:39;4.35;;;2.63;;
24557;SDS011;12726;49.148;8.582;2023-08-06T01:09:35;3.72;;;2.35;;
24557;SDS011;12726;49.148;8.582;2023-08-06T01:12:30;2.22;;;2.00;;
24557;SDS011;12726;49.148;8.582;2023-08-06T01:15:28;3.10;;;2.17;;
24557;SDS011;12726;49.148;8.582;2023-08-06T01:18:16;3.75;;;2.35;;
24557;SDS011;12726;49.148;8.582;2023-08-06T01:21:03;3.28;;;1.80;;
24557;SDS011;12726;49.148;8.582;2023-08-06T01:23:48;4.40;;;2.22;;
24557;SDS011;12726;49.148;8.582;2023-08-06T01:26:35;3.55;;;1.98;;
24557;SDS011;12726;49.148;8.582;2023-08-06T01:29:25;3.78;;;1.95;;
24557;SDS011;12726;49.148;8.582;2023-08-06T01:32:16;4.03;;;2.33;;
24557;SDS011;12726;49.148;8.582;2023-08-06T01:35:02;4.30;;;1.95;;
24557;SDS011;12726;49.148;8.582;2023-08-06T01:37:50;2.35;;;1.80;;
24557;SDS011;12726;49.148;8.582;2023-08-06T01:40:36;2.42;;;2.05;;
24557;SDS011;12726;49.148;8.582;2023-08-06T01:43:22;3.13;;;1.75;;
24557;SDS011;12726;49.148;8.582;2023-08-06T01:46:07;2.95;;;1.52;;
24557;SDS011;12726;49.148;8.582;2023-08-06T01:48:52;2.22;;;1.58;;
24557;SDS011;12726;49.148;8.582;2023-08-06T01:51:37;2.15;;;1.60;;
24557;SDS011;12726;49.148;8.582;2023-08-06T01:54:24;2.47;;;1.35;;
24557;SDS011;12726;49.148;8.582;2023-08-06T01:57:09;4.80;;;2.13;;
24557;SDS011;12726;49.148;8.582;2023-08-06T01:59:55;1.88;;;1.48;;
24557;SDS011;12726;49.148;8.582;2023-08-06T02:02:40;2.08;;;1.48;;
24557;SDS011;12726;49.148;8.582;2023-08-06T02:05:26;2.67;;;1.40;;
24557;SDS011;12726;49.148;8.582;2023-08-06T02:08:11;1.95;;;1.33;;
24557;SDS011;12726;49.148;8.582;2023-08-06T02:10:58;1.80;;;1.23;;
24557;SDS011;12726;49.148;8.582;2023-08-06T02:13:44;3.70;;;2.35;;
24557;SDS011;12726;49.148;8.582;2023-08-06T02:16:31;2.65;;;1.20;;
24557;SDS011;12726;49.148;8.582;2023-08-06T02:19:16;2.70;;;1.25;;
24557;SDS011;12726;49.148;8.582;2023-08-06T02:22:01;5.32;;;1.92;;
24557;SDS011;12726;49.148;8.582;2023-08-06T02:24:47;2.90;;;1.45;;
24557;SDS011;12726;49.148;8.582;2023-08-06T02:27:35;2.72;;;1.67;;
24557;SDS011;12726;49.148;8.582;2023-08-06T02:30:22;2.90;;;1.40;;
24557;SDS011;12726;49.148;8.582;2023-08-06T02:33:07;4.25;;;1.80;;
24557;SDS011;12726;49.148;8.582;2023-08-06T02:35:58;4.93;;;1.80;;
24557;SDS011;12726;49.148;8.582;2023-08-06T02:38:44;4.25;;;1.98;;
24557;SDS011;12726;49.148;8.582;2023-08-06T02:41:29;4.28;;;1.70;;
24557;SDS011;12726;49.148;8.582;2023-08-06T02:44:16;3.00;;;1.60;;
24557;SDS011;12726;49.148;8.582;2023-08-06T02:47:02;3.33;;;2.03;;
24557;SDS011;12726;49.148;8.582;2023-08-06T02:49:47;4.05;;;1.80;;
24557;SDS011;12726;49.148;8.582;2023-08-06T02:52:32;2.70;;;1.60;;
24557;SDS011;12726;49.148;8.582;2023-08-06T02:55:17;3.70;;;1.77;;
24557;SDS011;12726;49.148;8.582;2023-08-06T02:58:03;3.10;;;1.42;;
24557;SDS011;12726;49.148;8.582;2023-08-06T03:00:59;3.17;;;1.65;;
24557;SDS011;12726;49.148;8.582;2023-08-06T03:03:46;4.22;;;1.60;;
24557;SDS011;12726;49.148;8.582;2023-08-06T03:06:31;4.07;;;1.58;;
24557;SDS011;12726;49.148;8.582;2023-08-06T03:09:17;5.90;;;2.00;;
24557;SDS011;12726;49.148;8.582;2023-08-06T03:12:02;3.85;;;1.80;;
24557;SDS011;12726;49.148;8.582;2023-08-06T03:14:48;3.55;;;1.45;;
24557;SDS011;12726;49.148;8.582;2023-08-06T03:17:35;4.50;;;1.70;;
24557;SDS011;12726;49.148;8.582;2023-08-06T03:20:20;3.28;;;1.67;;
24557;SDS011;12726;49.148;8.582;2023-08-06T03:23:05;5.25;;;1.70;;
24557;SDS011;12726;49.148;8.582;2023-08-06T03:25:51;5.18;;;1.60;;
24557;SDS011;12726;49.148;8.582;2023-08-06T03:28:36;5.60;;;1.48;;
24557;SDS011;12726;49.148;8.582;2023-08-06T03:31:22;3.75;;;1.60;;
24557;SDS011;12726;49.148;8.582;2023-08-06T03:34:08;3.13;;;1.27;;
24557;SDS011;12726;49.148;8.582;2023-08-06T03:36:53;3.45;;;1.45;;
24557;SDS011;12726;49.148;8.582;2023-08-06T03:39:39;3.10;;;1.13;;
24557;SDS011;12726;49.148;8.582;2023-08-06T03:42:24;5.88;;;1.35;;
24557;SDS011;12726;49.148;8.582;2023-08-06T03:45:10;3.88;;;1.00;;
24557;SDS011;12726;49.148;8.582;2023-08-06T03:47:55;3.63;;;1.25;;
24557;SDS011;12726;49.148;8.582;2023-08-06T03:50:42;5.90;;;1.25;;
24557;SDS011;12726;49.148;8.582;2023-08-06T03:53:27;2.65;;;0.88;;
24557;SDS011;12726;49.148;8.582;2023-08-06T03:56:13;6.03;;;1.35;;
24557;SDS011;12726;49.148;8.582;2023-08-06T03:58:58;4.68;;;0.85;;
24557;SDS011;12726;49.148;8.582;2023-08-06T04:01:44;3.88;;;1.10;;
24557;SDS011;12726;49.148;8.582;2023-08-06T04:04:29;4.55;;;0.93;;
24557;SDS011;12726;49.148;8.582;2023-08-06T04:07:15;4.75;;;1.08;;
24557;SDS011;12726;49.148;8.582;2023-08-06T04:10:01;5.72;;;1.23;;
24557;SDS011;12726;49.148;8.582;2023-08-06T04:12:47;3.55;;;1.00;;
24557;SDS011;12726;49.148;8.582;2023-08-06T04:15:33;3.33;;;0.82;;
24557;SDS011;12726;49.148;8.582;2023-08-06T04:18:18;2.05;;;0.93;;
24557;SDS011;12726;49.148;8.582;2023-08-06T04:21:03;6.63;;;1.08;;
24557;SDS011;12726;49.148;8.582;2023-08-06T04:23:50;4.38;;;0.93;;
24557;SDS011;12726;49.148;8.582;2023-08-06T04:26:35;3.40;;;1.10;;
24557;SDS011;12726;49.148;8.582;2023-08-06T04:29:21;4.68;;;0.93;;
24557;SDS011;12726;49.148;8.582;2023-08-06T04:32:07;6.03;;;1.08;;
24557;SDS011;12726;49.148;8.582;2023-08-06T04:34:55;4.63;;;1.10;;
24557;SDS011;12726;49.148;8.582;2023-08-06T04:37:40;3.53;;;1.13;;
24557;SDS011;12726;49.148;8.582;2023-08-06T04:40:27;2.38;;;0.98;;
24557;SDS011;12726;49.148;8.582;2023-08-06T04:43:12;3.95;;;1.00;;
24557;SDS011;12726;49.148;8.582;2023-08-06T04:45:57;3.70;;;0.80;;
24557;SDS011;12726;49.148;8.582;2023-08-06T04:48:42;3.55;;;0.90;;
24557;SDS011;12726;49.148;8.582;2023-08-06T04:51:28;5.38;;;1.17;;
24557;SDS011;12726;49.148;8.582;2023-08-06T04:54:13;1.75;;;0.80;;
24557;SDS011;12726;49.148;8.582;2023-08-06T04:57:00;2.50;;;0.90;;
24557;SDS011;12726;49.148;8.582;2023-08-06T04:59:45;3.83;;;0.98;;
24557;SDS011;12726;49.148;8.582;2023-08-06T05:02:30;2.17;;;0.70;;
24557;SDS011;12726;49.148;8.582;2023-08-06T05:05:16;2.67;;;0.95;;
24557;SDS011;12726;49.148;8.582;2023-08-06T05:08:01;2.20;;;0.68;;
24557;SDS011;12726;49.148;8.582;2023-08-06T05:10:47;3.47;;;0.65;;
24557;SDS011;12726;49.148;8.582;2023-08-06T05:13:34;3.33;;;0.88;;
24557;SDS011;12726;49.148;8.582;2023-08-06T05:16:19;4.25;;;0.68;;
24557;SDS011;12726;49.148;8.582;2023-08-06T05:19:04;3.45;;;0.75;;
24557;SDS011;12726;49.148;8.582;2023-08-06T05:21:49;2.75;;;0.85;;
24557;SDS011;12726;49.148;8.582;2023-08-06T05:24:35;2.60;;;0.45;;
24557;SDS011;12726;49.148;8.582;2023-08-06T05:27:20;4.30;;;0.90;;
24557;SDS011;12726;49.148;8.582;2023-08-06T05:30:08;1.83;;;0.70;;
24557;SDS011;12726;49.148;8.582;2023-08-06T05:32:54;1.73;;;0.60;;
24557;SDS011;12726;49.148;8.582;2023-08-06T05:35:40;3.60;;;0.90;;
24557;SDS011;12726;49.148;8.582;2023-08-06T05:38:26;2.90;;;0.65;;
24557;SDS011;12726;49.148;8.582;2023-08-06T05:41:12;2.95;;;0.70;;
24557;SDS011;12726;49.148;8.582;2023-08-06T05:43:57;1.50;;;0.60;;
24557;SDS011;12726;49.148;8.582;2023-08-06T05:46:43;3.42;;;0.63;;
24557;SDS011;12726;49.148;8.582;2023-08-06T05:49:28;0.75;;;0.52;;
24557;SDS011;12726;49.148;8.582;2023-08-06T05:52:14;1.63;;;0.70;;
24557;SDS011;12726;49.148;8.582;2023-08-06T05:54:59;5.40;;;0.98;;
24557;SDS011;12726;49.148;8.582;2023-08-06T05:57:44;1.55;;;0.68;;
24557;SDS011;12726;49.148;8.582;2023-08-06T06:00:30;1.92;;;0.70;;
24557;SDS011;12726;49.148;8.582;2023-08-06T06:03:16;1.38;;;0.82;;
24557;SDS011;12726;49.148;8.582;2023-08-06T06:06:02;3.58;;;0.98;;
24557;SDS011;12726;49.148;8.582;2023-08-06T06:08:47;2.15;;;0.88;;
24557;SDS011;12726;49.148;8.582;2023-08-06T06:11:33;3.10;;;0.82;;
24557;SDS011;12726;49.148;8.582;2023-08-06T06:14:18;4.18;;;0.85;;
24557;SDS011;12726;49.148;8.582;2023-08-06T06:17:04;3.20;;;1.05;;
24557;SDS011;12726;49.148;8.582;2023-08-06T06:19:50;3.42;;;1.25;;
24557;SDS011;12726;49.148;8.582;2023-08-06T06:22:35;2.08;;;0.88;;
24557;SDS011;12726;49.148;8.582;2023-08-06T06:25:21;2.53;;;0.85;;
24557;SDS011;12726;49.148;8.582;2023-08-06T06:28:06;3.70;;;0.80;;
24557;SDS011;12726;49.148;8.582;2023-08-06T06:30:52;2.95;;;0.70;;
24557;SDS011;12726;49.148;8.582;2023-08-06T06:33:37;1.83;;;0.80;;
24557;SDS011;12726;49.148;8.582;2023-08-06T06:36:24;2.47;;;0.70;;
24557;SDS011;12726;49.148;8.582;2023-08-06T06:39:09;2.53;;;0.65;;
24557;SDS011;12726;49.148;8.582;2023-08-06T06:41:54;3.70;;;0.90;;
24557;SDS011;12726;49.148;8.582;2023-08-06T06:44:40;1.55;;;0.73;;
24557;SDS011;12726;49.148;8.582;2023-08-06T06:47:25;1.58;;;0.60;;
24557;SDS011;12726;49.148;8.582;2023-08-06T06:50:10;1.75;;;0.55;;
24557;SDS011;12726;49.148;8.582;2023-08-06T06:52:57;1.67;;;0.55;;
24557;SDS011;12726;49.148;8.582;2023-08-06T06:55:43;1.85;;;0.65;;
24557;SDS011;12726;49.148;8.582;2023-08-06T06:58:28;1.70;;;0.30;;
24557;SDS011;12726;49.148;8.582;2023-08-06T07:01:14;3.92;;;0.50;;
24557;SDS011;12726;49.148;8.582;2023-08-06T07:03:59;1.10;;;0.40;;
24557;SDS011;12726;49.148;8.582;2023-08-06T07:06:48;3.88;;;0.40;;
24557;SDS011;12726;49.148;8.582;2023-08-06T07:09:34;0.95;;;0.40;;
24557;SDS011;12726;49.148;8.582;2023-08-06T07:12:19;2.63;;;0.40;;
24557;SDS011;12726;49.148;8.582;2023-08-06T07:15:05;1.50;;;0.30;;
24557;SDS011;12726;49.148;8.582;2023-08-06T07:17:51;1.70;;;0.70;;
24557;SDS011;12726;49.148;8.582;2023-08-06T07:20:36;2.80;;;0.50;;
24557;SDS011;12726;49.148;8.582;2023-08-06T07:23:22;3.30;;;0.30;;
24557;SDS011;12726;49.148;8.582;2023-08-06T07:26:10;0.60;;;0.30;;
24557;SDS011;12726;49.148;8.582;2023-08-06T07:28:55;2.08;;;0.40;;
24557;SDS011;12726;49.148;8.582;2023-08-06T07:31:40;0.75;;;0.50;;
24557;SDS011;12726;49.148;8.582;2023-08-06T07:34:26;0.70;;;0.30;;
24557;SDS011;12726;49.148;8.582;2023-08-06T07:37:11;0.55;;;0.30;;
24557;SDS011;12726;49.148;8.582;2023-08-06T07:39:56;0.60;;;0.40;;
24557;SDS011;12726;49.148;8.582;2023-08-06T07:42:43;0.90;;;0.43;;
24557;SDS011;12726;49.148;8.582;2023-08-06T07:45:28;1.75;;;0.35;;
24557;SDS011;12726;49.148;8.582;2023-08-06T07:48:17;1.05;;;0.30;;
24557;SDS011;12726;49.148;8.582;2023-08-06T07:51:02;0.77;;;0.40;;
24557;SDS011;12726;49.148;8.582;2023-08-06T07:53:48;0.75;;;0.70;;
24557;SDS011;12726;49.148;8.582;2023-08-06T07:56:33;0.22;;;0.20;;
24557;SDS011;12726;49.148;8.582;2023-08-06T07:59:21;2.30;;;0.40;;
24557;SDS011;12726;49.148;8.582;2023-08-06T08:02:07;0.38;;;0.30;;
24557;SDS011;12726;49.148;8.582;2023-08-06T08:04:52;0.77;;;0.40;;
24557;SDS011;12726;49.148;8.582;2023-08-06T08:07:37;3.33;;;0.40;;
24557;SDS011;12726;49.148;8.582;2023-08-06T08:10:23;0.70;;;0.30;;
24557;SDS011;12726;49.148;8.582;2023-08-06T08:13:08;0.50;;;0.25;;
24557;SDS011;12726;49.148;8.582;2023-08-06T08:15:57;0.65;;;0.30;;
24557;SDS011;12726;49.148;8.582;2023-08-06T08:18:43;1.15;;;0.50;;
24557;SDS011;12726;49.148;8.582;2023-08-06T08:21:28;0.32;;;0.30;;
24557;SDS011;12726;49.148;8.582;2023-08-06T08:24:14;0.67;;;0.40;;
24557;SDS011;12726;49.148;8.582;2023-08-06T08:26:59;2.08;;;0.52;;
24557;SDS011;12726;49.148;8.582;2023-08-06T08:29:45;1.15;;;0.30;;
24557;SDS011;12726;49.148;8.582;2023-08-06T08:32:31;0.75;;;0.20;;
24557;SDS011;12726;49.148;8.582;2023-08-06T08:35:17;0.22;;;0.20;;
24557;SDS011;12726;49.148;8.582;2023-08-06T08:38:02;4.40;;;0.30;;
24557;SDS011;12726;49.148;8.582;2023-08-06T08:40:47;0.20;;;0.15;;
24557;SDS011;12726;49.148;8.582;2023-08-06T08:43:38;1.08;;;0.10;;
24557;SDS011;12726;49.148;8.582;2023-08-06T08:46:25;0.63;;;0.20;;
24557;SDS011;12726;49.148;8.582;2023-08-06T08:49:13;0.52;;;0.20;;
24557;SDS011;12726;49.148;8.582;2023-08-06T08:51:59;0.43;;;0.22;;
24557;SDS011;12726;49.148;8.582;2023-08-06T08:54:46;0.93;;;0.63;;
24557;SDS011;12726;49.148;8.582;2023-08-06T08:57:35;0.93;;;0.38;;
24557;SDS011;12726;49.148;8.582;2023-08-06T09:00:20;1.20;;;0.35;;
24557;SDS011;12726;49.148;8.582;2023-08-06T09:03:06;1.95;;;0.50;;
24557;SDS011;12726;49.148;8.582;2023-08-06T09:05:53;1.88;;;0.40;;
24557;SDS011;12726;49.148;8.582;2023-08-06T09:08:41;1.00;;;0.30;;
24557;SDS011;12726;49.148;8.582;2023-08-06T09:11:32;0.77;;;0.40;;
24557;SDS011;12726;49.148;8.582;2023-08-06T09:14:23;0.90;;;0.30;;
24557;SDS011;12726;49.148;8.582;2023-08-06T09:17:09;1.00;;;0.47;;
24557;SDS011;12726;49.148;8.582;2023-08-06T09:19:55;1.33;;;0.60;;
24557;SDS011;12726;49.148;8.582;2023-08-06T09:22:42;0.47;;;0.32;;
24557;SDS011;12726;49.148;8.582;2023-08-06T09:25:27;1.73;;;0.20;;
24557;SDS011;12726;49.148;8.582;2023-08-06T09:28:14;0.80;;;0.63;;
24557;SDS011;12726;49.148;8.582;2023-08-06T09:31:00;0.65;;;0.20;;
24557;SDS011;12726;49.148;8.582;2023-08-06T09:33:45;1.27;;;0.30;;
24557;SDS011;12726;49.148;8.582;2023-08-06T09:36:33;0.68;;;0.50;;
24557;SDS011;12726;49.148;8.582;2023-08-06T09:39:20;1.08;;;0.55;;
24557;SDS011;12726;49.148;8.582;2023-08-06T09:42:07;0.82;;;0.28;;
24557;SDS011;12726;49.148;8.582;2023-08-06T09:44:52;1.85;;;0.30;;
24557;SDS011;12726;49.148;8.582;2023-08-06T09:47:51;0.63;;;0.28;;
24557;SDS011;12726;49.148;8.582;2023-08-06T09:50:41;0.77;;;0.30;;
24557;SDS011;12726;49.148;8.582;2023-08-06T09:53:26;0.47;;;0.30;;
24557;SDS011;12726;49.148;8.582;2023-08-06T09:56:13;0.47;;;0.30;;
24557;SDS011;12726;49.148;8.582;2023-08-06T09:59:00;0.75;;;0.30;;
24557;SDS011;12726;49.148;8.582;2023-08-06T10:01:45;0.35;;;0.30;;
24557;SDS011;12726;49.148;8.582;2023-08-06T10:04:31;0.55;;;0.47;;
24557;SDS011;12726;49.148;8.582;2023-08-06T10:07:17;0.43;;;0.20;;
24557;SDS011;12726;49.148;8.582;2023-08-06T10:10:02;0.75;;;0.28;;
24557;SDS011;12726;49.148;8.582;2023-08-06T10:12:50;0.30;;;0.30;;
24557;SDS011;12726;49.148;8.582;2023-08-06T10:15:39;0.52;;;0.20;;
24557;SDS011;12726;49.148;8.582;2023-08-06T10:18:25;4.25;;;0.40;;
24557;SDS011;12726;49.148;8.582;2023-08-06T10:21:11;0.63;;;0.30;;
24557;SDS011;12726;49.148;8.582;2023-08-06T10:23:57;0.30;;;0.30;;
24557;SDS011;12726;49.148;8.582;2023-08-06T10:26:42;1.38;;;0.30;;
24557;SDS011;12726;49.148;8.582;2023-08-06T10:29:36;1.85;;;0.30;;
24557;SDS011;12726;49.148;8.582;2023-08-06T10:32:25;0.57;;;0.40;;
24557;SDS011;12726;49.148;8.582;2023-08-06T10:35:34;0.30;;;0.30;;
24557;SDS011;12726;49.148;8.582;2023-08-06T10:38:21;0.80;;;0.40;;
24557;SDS011;12726;49.148;8.582;2023-08-06T10:41:16;0.63;;;0.40;;
24557;SDS011;12726;49.148;8.582;2023-08-06T10:44:07;0.95;;;0.45;;
24557;SDS011;12726;49.148;8.582;2023-08-06T10:46:55;0.50;;;0.40;;
24557;SDS011;12726;49.148;8.582;2023-08-06T10:49:40;0.77;;;0.50;;
24557;SDS011;12726;49.148;8.582;2023-08-06T10:52:25;1.05;;;0.57;;
24557;SDS011;12726;49.148;8.582;2023-08-06T10:55:11;0.68;;;0.47;;
24557;SDS011;12726;49.148;8.582;2023-08-06T10:57:57;1.88;;;0.73;;
24557;SDS011;12726;49.148;8.582;2023-08-06T11:00:43;1.13;;;0.77;;
24557;SDS011;12726;49.148;8.582;2023-08-06T11:03:29;1.73;;;0.80;;
24557;SDS011;12726;49.148;8.582;2023-08-06T11:06:17;1.00;;;0.70;;
24557;SDS011;12726;49.148;8.582;2023-08-06T11:09:03;1.60;;;0.93;;
24557;SDS011;12726;49.148;8.582;2023-08-06T11:11:49;1.35;;;0.80;;
24557;SDS011;12726;49.148;8.582;2023-08-06T11:14:34;2.53;;;0.88;;
24557;SDS011;12726;49.148;8.582;2023-08-06T11:17:20;2.83;;;1.10;;
24557;SDS011;12726;49.148;8.582;2023-08-06T11:20:07;2.97;;;1.27;;
24557;SDS011;12726;49.148;8.582;2023-08-06T11:22:53;2.13;;;0.90;;
24557;SDS011;12726;49.148;8.582;2023-08-06T11:25:43;2.17;;;1.17;;
24557;SDS011;12726;49.148;8.582;2023-08-06T11:28:29;2.88;;;0.98;;
24557;SDS011;12726;49.148;8.582;2023-08-06T11:31:20;1.65;;;1.10;;
24557;SDS011;12726;49.148;8.582;2023-08-06T11:34:06;2.72;;;1.27;;
24557;SDS011;12726;49.148;8.582;2023-08-06T11:36:53;2.28;;;1.33;;
24557;SDS011;12726;49.148;8.582;2023-08-06T11:39:45;3.42;;;1.25;;
24557;SDS011;12726;49.148;8.582;2023-08-06T11:42:32;2.55;;;1.30;;
24557;SDS011;12726;49.148;8.582;2023-08-06T11:45:21;2.70;;;1.23;;
24557;SDS011;12726;49.148;8.582;2023-08-06T11:48:07;2.42;;;1.50;;
24557;SDS011;12726;49.148;8.582;2023-08-06T11:50:54;2.38;;;1.38;;
24557;SDS011;12726;49.148;8.582;2023-08-06T11:53:42;6.78;;;3.10;;
24557;SDS011;12726;49.148;8.582;2023-08-06T11:56:33;5.72;;;3.70;;
24557;SDS011;12726;49.148;8.582;2023-08-06T11:59:18;2.63;;;1.52;;
24557;SDS011;12726;49.148;8.582;2023-08-06T12:02:07;2.90;;;2.00;;
24557;SDS011;12726;49.148;8.582;2023-08-06T12:05:02;2.33;;;1.50;;
24557;SDS011;12726;49.148;8.582;2023-08-06T12:07:49;3.90;;;1.50;;
24557;SDS011;12726;49.148;8.582;2023-08-06T12:10:36;3.55;;;1.60;;
24557;SDS011;12726;49.148;8.582;2023-08-06T12:13:21;5.13;;;1.73;;
24557;SDS011;12726;49.148;8.582;2023-08-06T12:16:07;4.40;;;1.75;;
24557;SDS011;12726;49.148;8.582;2023-08-06T12:18:52;2.30;;;1.38;;
24557;SDS011;12726;49.148;8.582;2023-08-06T12:21:37;2.67;;;1.73;;
24557;SDS011;12726;49.148;8.582;2023-08-06T12:24:23;5.05;;;1.50;;
24557;SDS011;12726;49.148;8.582;2023-08-06T12:27:10;5.95;;;1.65;;
24557;SDS011;12726;49.148;8.582;2023-08-06T12:29:55;2.00;;;1.48;;
24557;SDS011;12726;49.148;8.582;2023-08-06T12:32:40;4.45;;;1.42;;
24557;SDS011;12726;49.148;8.582;2023-08-06T12:35:26;2.30;;;1.38;;
24557;SDS011;12726;49.148;8.582;2023-08-06T12:38:11;3.30;;;1.55;;
24557;SDS011;12726;49.148;8.582;2023-08-06T12:40:57;3.83;;;1.38;;
24557;SDS011;12726;49.148;8.582;2023-08-06T12:43:43;2.35;;;1.48;;
24557;SDS011;12726;49.148;8.582;2023-08-06T12:46:29;2.30;;;1.50;;
24557;SDS011;12726;49.148;8.582;2023-08-06T12:49:14;3.47;;;1.55;;
24557;SDS011;12726;49.148;8.582;2023-08-06T12:52:00;3.33;;;1.65;;
24557;SDS011;12726;49.148;8.582;2023-08-06T12:54:46;3.35;;;1.38;;
24557;SDS011;12726;49.148;8.582;2023-08-06T12:57:31;3.20;;;1.13;;
24557;SDS011;12726;49.148;8.582;2023-08-06T13:00:19;3.20;;;1.48;;
24557;SDS011;12726;49.148;8.582;2023-08-06T13:03:04;3.55;;;1.27;;
24557;SDS011;12726;49.148;8.582;2023-08-06T13:05:50;2.45;;;1.30;;
24557;SDS011;12726;49.148;8.582;2023-08-06T13:08:36;2.08;;;1.20;;
24557;SDS011;12726;49.148;8.582;2023-08-06T13:11:21;2.53;;;1.20;;
24557;SDS011;12726;49.148;8.582;2023-08-06T13:14:07;2.65;;;1.10;;
24557;SDS011;12726;49.148;8.582;2023-08-06T13:16:55;3.72;;;1.60;;
24557;SDS011;12726;49.148;8.582;2023-08-06T13:19:40;2.40;;;1.20;;
24557;SDS011;12726;49.148;8.582;2023-08-06T13:22:25;2.83;;;1.33;;
24557;SDS011;12726;49.148;8.582;2023-08-06T13:25:11;2.05;;;1.20;;
24557;SDS011;12726;49.148;8.582;2023-08-06T13:27:58;2.40;;;1.30;;
24557;SDS011;12726;49.148;8.582;2023-08-06T13:30:43;3.30;;;1.48;;
24557;SDS011;12726;49.148;8.582;2023-08-06T13:33:30;1.45;;;0.70;;
24557;SDS011;12726;49.148;8.582;2023-08-06T13:36:15;0.90;;;0.80;;
24557;SDS011;12726;49.148;8.582;2023-08-06T13:39:01;2.15;;;0.90;;
24557;SDS011;12726;49.148;8.582;2023-08-06T13:41:47;1.70;;;0.73;;
24557;SDS011;12726;49.148;8.582;2023-08-06T13:44:33;2.85;;;2.60;;
24557;SDS011;12726;49.148;8.582;2023-08-06T13:47:19;3.50;;;1.85;;
24557;SDS011;12726;49.148;8.582;2023-08-06T13:50:06;1.98;;;1.10;;
24557;SDS011;12726;49.148;8.582;2023-08-06T13:52:51;4.18;;;0.80;;
24557;SDS011;12726;49.148;8.582;2023-08-06T13:55:39;1.00;;;0.65;;
24557;SDS011;12726;49.148;8.582;2023-08-06T13:58:24;1.02;;;0.77;;
24557;SDS011;12726;49.148;8.582;2023-08-06T14:01:10;1.73;;;0.70;;
24557;SDS011;12726;49.148;8.582;2023-08-06T14:03:57;0.80;;;0.57;;
24557;SDS011;12726;49.148;8.582;2023-08-06T14:06:43;0.52;;;0.50;;
24557;SDS011;12726;49.148;8.582;2023-08-06T14:09:29;1.00;;;0.68;;
24557;SDS011;12726;49.148;8.582;2023-08-06T14:12:14;0.77;;;0.50;;
24557;SDS011;12726;49.148;8.582;2023-08-06T14:14:59;0.50;;;0.45;;
24557;SDS011;12726;49.148;8.582;2023-08-06T14:17:46;0.60;;;0.60;;
24557;SDS011;12726;49.148;8.582;2023-08-06T14:20:32;2.20;;;0.40;;
24557;SDS011;12726;49.148;8.582;2023-08-06T14:23:19;0.77;;;0.52;;
24557;SDS011;12726;49.148;8.582;2023-08-06T14:26:04;2.40;;;0.63;;
24557;SDS011;12726;49.148;8.582;2023-08-06T14:28:50;2.95;;;0.73;;
24557;SDS011;12726;49.148;8.582;2023-08-06T14:31:38;1.50;;;0.70;;
24557;SDS011;12726;49.148;8.582;2023-08-06T14:34:23;1.35;;;0.77;;
24557;SDS011;12726;49.148;8.582;2023-08-06T14:40:16;0.65;;;0.60;;
24557;SDS011;12726;49.148;8.582;2023-08-06T14:43:06;1.83;;;0.80;;
24557;SDS011;12726;49.148;8.582;2023-08-06T14:46:17;1.92;;;0.63;;
24557;SDS011;12726;49.148;8.582;2023-08-06T14:49:09;0.77;;;0.77;;
24557;SDS011;12726;49.148;8.582;2023-08-06T14:52:21;1.25;;;0.70;;
24557;SDS011;12726;49.148;8.582;2023-08-06T14:55:06;1.67;;;0.52;;
24557;SDS011;12726;49.148;8.582;2023-08-06T14:57:54;2.30;;;0.90;;
24557;SDS011;12726;49.148;8.582;2023-08-06T15:00:46;1.83;;;0.60;;
24557;SDS011;12726;49.148;8.582;2023-08-06T15:03:32;2.60;;;0.80;;
24557;SDS011;12726;49.148;8.582;2023-08-06T15:06:17;4.50;;;1.08;;
24557;SDS011;12726;49.148;8.582;2023-08-06T15:09:02;1.83;;;0.80;;
24557;SDS011;12726;49.148;8.582;2023-08-06T15:11:48;1.58;;;0.75;;
24557;SDS011;12726;49.148;8.582;2023-08-06T15:14:34;1.80;;;0.70;;
24557;SDS011;12726;49.148;8.582;2023-08-06T15:17:20;1.00;;;0.80;;
24557;SDS011;12726;49.148;8.582;2023-08-06T15:20:06;1.20;;;0.70;;
24557;SDS011;12726;49.148;8.582;2023-08-06T15:22:52;0.95;;;0.73;;
24557;SDS011;12726;49.148;8.582;2023-08-06T15:25:38;1.60;;;0.77;;
24557;SDS011;12726;49.148;8.582;2023-08-06T15:28:23;2.83;;;0.70;;
24557;SDS011;12726;49.148;8.582;2023-08-06T15:31:10;0.88;;;0.50;;
24557;SDS011;12726;49.148;8.582;2023-08-06T15:33:55;1.52;;;0.63;;
24557;SDS011;12726;49.148;8.582;2023-08-06T15:36:40;1.10;;;0.77;;
24557;SDS011;12726;49.148;8.582;2023-08-06T15:39:26;2.33;;;0.93;;
24557;SDS011;12726;49.148;8.582;2023-08-06T15:42:11;2.15;;;0.80;;
24557;SDS011;12726;49.148;8.582;2023-08-06T15:44:58;1.58;;;0.63;;
24557;SDS011;12726;49.148;8.582;2023-08-06T15:47:44;2.55;;;0.70;;
24557;SDS011;12726;49.148;8.582;2023-08-06T15:50:30;2.50;;;0.77;;
24557;SDS011;12726;49.148;8.582;2023-08-06T15:53:15;2.05;;;1.55;;
24557;SDS011;12726;49.148;8.582;2023-08-06T15:56:01;1.73;;;0.80;;
24557;SDS011;12726;49.148;8.582;2023-08-06T15:58:46;1.38;;;0.65;;
24557;SDS011;12726;49.148;8.582;2023-08-06T16:01:32;4.25;;;0.88;;
24557;SDS011;12726;49.148;8.582;2023-08-06T16:04:19;2.17;;;1.10;;
24557;SDS011;12726;49.148;8.582;2023-08-06T16:07:05;1.67;;;0.80;;
24557;SDS011;12726;49.148;8.582;2023-08-06T16:09:50;1.20;;;0.70;;
24557;SDS011;12726;49.148;8.582;2023-08-06T16:12:37;1.95;;;0.70;;
24557;SDS011;12726;49.148;8.582;2023-08-06T16:15:22;2.60;;;0.75;;
24557;SDS011;12726;49.148;8.582;2023-08-06T16:18:08;0.80;;;0.60;;
24557;SDS011;12726;49.148;8.582;2023-08-06T16:20:54;2.33;;;0.65;;
24557;SDS011;12726;49.148;8.582;2023-08-06T16:23:40;4.28;;;1.08;;
24557;SDS011;12726;49.148;8.582;2023-08-06T16:26:25;0.57;;;0.50;;
24557;SDS011;12726;49.148;8.582;2023-08-06T16:29:11;2.15;;;0.60;;
24557;SDS011;12726;49.148;8.582;2023-08-06T16:31:56;2.92;;;0.70;;
24557;SDS011;12726;49.148;8.582;2023-08-06T16:34:43;2.33;;;0.63;;
24557;SDS011;12726;49.148;8.582;2023-08-06T16:37:30;1.08;;;0.70;;
24557;SDS011;12726;49.148;8.582;2023-08-06T16:40:16;1.77;;;0.68;;
24557;SDS011;12726;49.148;8.582;2023-08-06T16:43:01;1.17;;;0.75;;
24557;SDS011;12726;49.148;8.582;2023-08-06T16:45:46;1.83;;;0.60;;